createdAt,value
2022-12-11T00:00:29.725Z,-0.36
2022-12-11T00:02:57.895Z,-0.34
2022-12-11T00:05:26.041Z,-0.32
2022-12-11T00:07:54.227Z,-0.31
2022-12-11T00:10:22.470Z,-0.29
2022-12-11T00:12:52.163Z,-0.30
2022-12-11T00:15:20.166Z,-0.28
2022-12-11T00:17:48.259Z,-0.28
2022-12-11T00:20:16.537Z,-0.33
2022-12-11T00:22:44.727Z,-0.33
2022-12-11T00:25:13.147Z,-0.31
2022-12-11T00:27:41.405Z,-0.29
2022-12-11T00:30:12.733Z,-0.26
2022-12-11T00:32:40.757Z,-0.26
2022-12-11T00:35:10.409Z,-0.23
2022-12-11T00:37:38.846Z,-0.24
2022-12-11T00:40:07.778Z,-0.27
2022-12-11T00:42:36.294Z,-0.28
2022-12-11T00:45:04.869Z,-0.26
2022-12-11T00:47:34.582Z,-0.25
2022-12-11T00:50:02.769Z,-0.32
2022-12-11T00:52:30.981Z,-0.30
2022-12-11T00:54:59.153Z,-0.32
2022-12-11T00:57:27.198Z,-0.30
2022-12-11T00:59:55.822Z,-0.25
2022-12-11T01:02:24.063Z,-0.32
2022-12-11T01:04:53.671Z,-0.29
2022-12-11T01:07:21.761Z,-0.23
2022-12-11T01:10:07.473Z,-0.21
2022-12-11T01:12:35.849Z,-0.21
2022-12-11T01:15:04.067Z,-0.15
2022-12-11T01:17:32.298Z,-0.12
2022-12-11T01:20:02.445Z,-0.10
2022-12-11T01:22:30.517Z,-0.13
2022-12-11T01:24:59.307Z,-0.14
2022-12-11T01:27:27.365Z,-0.12
2022-12-11T01:29:55.546Z,-0.12
2022-12-11T01:32:24.125Z,-0.13
2022-12-11T01:34:52.533Z,-0.09
2022-12-11T01:37:22.355Z,-0.09
2022-12-11T01:39:50.475Z,-0.10
2022-12-11T01:42:19.413Z,-0.13
2022-12-11T01:45:14.569Z,-0.16
2022-12-11T01:47:42.761Z,-0.09
2022-12-11T01:50:10.793Z,-0.12
2022-12-11T01:52:41.223Z,-0.11
2022-12-11T01:55:10.125Z,-0.11
2022-12-11T01:57:38.940Z,-0.10
2022-12-11T02:00:07.874Z,-0.15
2022-12-11T02:02:41.237Z,-0.16
2022-12-11T02:05:10.443Z,-0.19
2022-12-11T02:07:41.778Z,-0.22
2022-12-11T02:10:12.245Z,-0.23
2022-12-11T02:12:43.241Z,-0.30
2022-12-11T02:15:14.289Z,-0.27
2022-12-11T02:17:44.016Z,-0.27
2022-12-11T02:20:16.683Z,-0.30
2022-12-11T02:22:56.051Z,-0.33
2022-12-11T02:25:27.760Z,-0.32
2022-12-11T02:28:00.359Z,-0.31
2022-12-11T02:30:30.632Z,-0.31
2022-12-11T02:33:00.595Z,-0.39
2022-12-11T02:35:32.307Z,-0.37
2022-12-11T02:38:04.937Z,-0.39
2022-12-11T02:40:34.755Z,-0.41
2022-12-11T02:43:04.729Z,-0.39
2022-12-11T02:45:35.852Z,-0.34
2022-12-11T02:48:06.876Z,-0.35
2022-12-11T02:50:36.463Z,-0.36
2022-12-11T02:53:06.184Z,-0.42
2022-12-11T02:55:35.179Z,-0.45
2022-12-11T02:58:06.461Z,-0.39
2022-12-11T03:00:36.460Z,-0.42
2022-12-11T03:03:04.715Z,-0.47
2022-12-11T03:05:33.406Z,-0.52
2022-12-11T03:08:01.946Z,-0.52
2022-12-11T03:10:30.049Z,-0.61
2022-12-11T03:12:59.469Z,-0.59
2022-12-11T03:15:32.315Z,-0.59
2022-12-11T03:18:05.503Z,-0.59
2022-12-11T03:20:38.410Z,-0.56
2022-12-11T03:23:12.450Z,-0.63
2022-12-11T03:25:44.971Z,-0.59
2022-12-11T03:28:15.152Z,-0.62
2022-12-11T03:30:45.738Z,-0.70
2022-12-11T03:33:19.310Z,-0.70
2022-12-11T03:35:50.892Z,-0.70
2022-12-11T03:38:22.495Z,-0.68
2022-12-11T03:40:53.567Z,-0.64
2022-12-11T03:43:23.505Z,-0.65
2022-12-11T03:45:53.708Z,-0.63
2022-12-11T03:48:24.888Z,-0.69
2022-12-11T03:50:53.595Z,-0.59
2022-12-11T03:53:22.607Z,-0.58
2022-12-11T03:55:51.399Z,-0.68
2022-12-11T03:58:19.528Z,-0.64
2022-12-11T04:00:47.725Z,-0.57
2022-12-11T04:03:17.967Z,-0.57
2022-12-11T04:05:48.618Z,-0.55
2022-12-11T04:08:17.675Z,-0.58
2022-12-11T04:10:46.017Z,-0.59
2022-12-11T04:13:14.193Z,-0.53
2022-12-11T04:15:41.479Z,-0.55
2022-12-11T04:18:27.213Z,-0.56
2022-12-11T04:21:15.257Z,-0.61
2022-12-11T04:24:00.838Z,-0.59
2022-12-11T04:26:29.283Z,-0.58
2022-12-11T04:28:57.322Z,-0.60
2022-12-11T04:31:25.632Z,-0.60
2022-12-11T04:33:53.903Z,-0.63
2022-12-11T04:36:23.727Z,-0.58
2022-12-11T04:38:52.050Z,-0.58
2022-12-11T04:41:20.199Z,-0.57
2022-12-11T04:43:48.334Z,-0.57
2022-12-11T04:46:18.033Z,-0.59
2022-12-11T04:48:46.635Z,-0.60
2022-12-11T04:51:15.082Z,-0.57
2022-12-11T04:53:44.889Z,-0.60
2022-12-11T04:56:14.698Z,-0.57
2022-12-11T04:58:43.463Z,-0.57
2022-12-11T05:01:12.028Z,-0.55
2022-12-11T05:03:40.672Z,-0.61
2022-12-11T05:06:09.461Z,-0.63
2022-12-11T05:08:38.591Z,-0.62
2022-12-11T05:11:09.960Z,-0.77
2022-12-11T05:13:38.713Z,-0.80
2022-12-11T05:16:07.379Z,-0.85
2022-12-11T05:18:35.991Z,-0.94
2022-12-11T05:21:05.653Z,-1.02
2022-12-11T05:23:34.203Z,-1.09
2022-12-11T05:26:03.505Z,-1.18
2022-12-11T05:28:34.604Z,-1.27
2022-12-11T05:31:03.802Z,-1.36
2022-12-11T05:33:32.325Z,-1.44
2022-12-11T05:36:00.718Z,-1.50
2022-12-11T05:38:28.811Z,-1.56
2022-12-11T05:40:57.549Z,-1.63
2022-12-11T05:43:26.043Z,-1.69
2022-12-11T05:45:56.125Z,-1.77
2022-12-11T05:48:24.269Z,-1.82
2022-12-11T05:50:59.452Z,-1.86
2022-12-11T05:53:27.535Z,-1.89
2022-12-11T05:55:56.204Z,-1.94
2022-12-11T05:58:24.406Z,-1.98
2022-12-11T06:00:52.741Z,-2.05
2022-12-11T06:03:22.410Z,-2.09
2022-12-11T06:05:50.911Z,-2.13
2022-12-11T06:08:19.352Z,-2.18
2022-12-11T06:10:48.043Z,-2.26
2022-12-11T06:13:16.353Z,-2.37
2022-12-11T06:15:44.778Z,-2.42
2022-12-11T06:18:13.254Z,-2.44
2022-12-11T06:20:42.941Z,-2.46
2022-12-11T06:23:11.216Z,-2.51
2022-12-11T06:25:39.507Z,-2.55
2022-12-11T06:28:07.788Z,-2.59
2022-12-11T06:30:38.819Z,-2.67
2022-12-11T06:33:07.923Z,-2.78
2022-12-11T06:35:41.657Z,-2.82
2022-12-11T06:38:12.308Z,-2.88
2022-12-11T06:40:40.823Z,-2.92
2022-12-11T06:43:09.309Z,-3.01
2022-12-11T06:45:38.237Z,-3.05
2022-12-11T06:48:06.567Z,-3.12
2022-12-11T06:50:34.839Z,-3.15
2022-12-11T06:53:02.987Z,-3.20
2022-12-11T06:55:35.747Z,-3.24
2022-12-11T06:58:04.479Z,-3.29
2022-12-11T07:00:33.102Z,-3.34
2022-12-11T07:03:01.592Z,-3.38
2022-12-11T07:05:29.852Z,-3.36
2022-12-11T07:07:57.980Z,-3.33
2022-12-11T07:10:26.511Z,-3.28
2022-12-11T07:12:56.575Z,-3.23
2022-12-11T07:15:24.944Z,-3.21
2022-12-11T07:17:53.027Z,-3.12
2022-12-11T07:20:21.138Z,-3.01
2022-12-11T07:22:49.200Z,-2.84
2022-12-11T07:25:17.544Z,-2.73
2022-12-11T07:27:45.705Z,-2.64
2022-12-11T07:30:15.747Z,-2.56
2022-12-11T07:32:44.734Z,-2.51
2022-12-11T07:35:13.603Z,-2.48
2022-12-11T07:37:42.607Z,-2.47
2022-12-11T07:40:11.537Z,-2.44
2022-12-11T07:42:45.844Z,-2.39
2022-12-11T07:45:15.750Z,-2.30
2022-12-11T07:47:43.775Z,-2.25
2022-12-11T07:50:11.843Z,-2.20
2022-12-11T07:52:40.675Z,-2.15
2022-12-11T07:55:09.477Z,-2.13
2022-12-11T07:57:38.275Z,-2.12
2022-12-11T08:00:07.033Z,-2.11
2022-12-11T08:02:41.843Z,-2.10
2022-12-11T08:05:10.411Z,-2.10
2022-12-11T08:07:38.784Z,-2.09
2022-12-11T08:10:07.246Z,-2.05
2022-12-11T08:12:35.534Z,-2.01
2022-12-11T08:15:03.622Z,-2.00
2022-12-11T08:17:36.669Z,-1.96
2022-12-11T08:20:10.183Z,-1.95
2022-12-11T08:22:38.978Z,-1.93
2022-12-11T08:25:07.769Z,-1.84
2022-12-11T08:27:36.426Z,-1.81
2022-12-11T08:30:05.036Z,-1.79
2022-12-11T08:32:33.581Z,-1.78
2022-12-11T08:35:02.209Z,-1.68
2022-12-11T08:37:31.861Z,-1.71
2022-12-11T08:40:00.631Z,-1.64
2022-12-11T08:42:29.772Z,-1.65
2022-12-11T08:44:58.204Z,-1.65
2022-12-11T08:47:27.410Z,-1.57
2022-12-11T08:49:56.891Z,-1.54
2022-12-11T08:52:25.135Z,-1.55
2022-12-11T08:54:55.265Z,-1.52
2022-12-11T08:57:23.576Z,-1.54
2022-12-11T08:59:51.654Z,-1.46
2022-12-11T09:02:19.867Z,-1.49
2022-12-11T09:04:48.770Z,-1.45
2022-12-11T09:07:17.271Z,-1.39
2022-12-11T09:09:45.728Z,-1.33
2022-12-11T09:12:15.466Z,-1.30
2022-12-11T09:14:43.978Z,-1.32
2022-12-11T09:17:12.137Z,-1.25
2022-12-11T09:19:40.762Z,-1.27
2022-12-11T09:22:11.307Z,-1.25
2022-12-11T09:24:39.779Z,-1.21
2022-12-11T09:27:07.935Z,-1.17
2022-12-11T09:29:37.594Z,-1.13
2022-12-11T09:32:06.202Z,-1.12
2022-12-11T09:34:34.315Z,-1.17
2022-12-11T09:37:03.033Z,-1.25
2022-12-11T09:39:31.289Z,-1.22
2022-12-11T09:42:05.538Z,-1.26
2022-12-11T09:44:35.850Z,-1.27
2022-12-11T09:47:15.123Z,-1.29
2022-12-11T09:49:45.153Z,-1.18
2022-12-11T09:52:15.697Z,-1.16
2022-12-11T09:54:46.872Z,-1.18
2022-12-11T09:57:20.083Z,-1.13
2022-12-11T10:00:04.267Z,-1.07
2022-12-11T10:02:44.222Z,-1.11
2022-12-11T10:05:17.169Z,-1.11
2022-12-11T10:07:49.885Z,-1.06
2022-12-11T10:10:25.547Z,-1.06
2022-12-11T10:12:59.983Z,-1.11
2022-12-11T10:15:32.807Z,-1.02
2022-12-11T10:18:04.880Z,-0.93
2022-12-11T10:20:36.719Z,-1.01
2022-12-11T10:23:07.234Z,-0.96
2022-12-11T10:25:37.805Z,-1.02
2022-12-11T10:28:12.123Z,-1.03
2022-12-11T10:30:42.351Z,-1.01
2022-12-11T10:33:16.098Z,-0.97
2022-12-11T10:35:46.658Z,-1.02
2022-12-11T10:38:16.371Z,-0.96
2022-12-11T10:40:45.638Z,-0.94
2022-12-11T10:43:13.984Z,-0.95
2022-12-11T10:45:51.138Z,-0.99
2022-12-11T10:48:21.219Z,-0.90
2022-12-11T10:50:57.996Z,-0.93
2022-12-11T10:53:27.211Z,-0.99
2022-12-11T10:55:55.681Z,-1.06
2022-12-11T10:58:25.330Z,-1.10
2022-12-11T11:01:04.088Z,-1.06
2022-12-11T11:03:34.511Z,-0.97
2022-12-11T11:06:04.053Z,-0.99
2022-12-11T11:08:39.818Z,-1.02
2022-12-11T11:11:09.232Z,-1.05
2022-12-11T11:13:37.555Z,-1.09
2022-12-11T11:16:06.992Z,-1.05
2022-12-11T11:18:36.620Z,-1.08
2022-12-11T11:21:05.137Z,-1.09
2022-12-11T11:23:33.753Z,-1.08
2022-12-11T11:26:03.112Z,-1.11
2022-12-11T11:28:32.191Z,-0.95
2022-12-11T11:31:03.003Z,-0.88
2022-12-11T11:33:32.320Z,-0.89
2022-12-11T11:36:02.817Z,-0.80
2022-12-11T11:38:33.145Z,-0.70
2022-12-11T11:41:08.945Z,-0.71
2022-12-11T11:43:44.854Z,-0.70
2022-12-11T11:46:16.081Z,-0.71
2022-12-11T11:48:51.534Z,-0.70
2022-12-11T11:51:24.547Z,-0.80
2022-12-11T11:53:54.292Z,-0.80
2022-12-11T11:56:23.762Z,-0.80
2022-12-11T11:58:56.461Z,-0.79
2022-12-11T12:01:25.043Z,-0.78
2022-12-11T12:03:53.581Z,-0.82
2022-12-11T12:06:29.703Z,-0.78
2022-12-11T12:09:01.062Z,-0.73
2022-12-11T12:11:34.813Z,-0.74
2022-12-11T12:14:22.690Z,-0.72
2022-12-11T12:17:03.124Z,-0.70
2022-12-11T12:19:39.086Z,-0.74
2022-12-11T12:22:15.472Z,-0.64
2022-12-11T12:24:49.295Z,-0.56
2022-12-11T12:27:50.618Z,-0.58
2022-12-11T12:30:14.055Z,-0.62
2022-12-11T12:32:50.849Z,-0.60
2022-12-11T12:35:25.985Z,-0.65
2022-12-11T12:37:58.716Z,-0.67
2022-12-11T12:40:31.570Z,-0.73
2022-12-11T12:43:06.411Z,-0.69
2022-12-11T12:45:38.409Z,-0.74
2022-12-11T12:48:08.986Z,-0.69
2022-12-11T12:50:39.330Z,-0.64
2022-12-11T12:53:11.301Z,-0.58
2022-12-11T12:55:40.637Z,-0.57
2022-12-11T12:58:24.215Z,-0.50
2022-12-11T13:00:52.880Z,-0.55
2022-12-11T13:03:22.392Z,-0.43
2022-12-11T13:05:58.032Z,-0.53
2022-12-11T13:08:29.107Z,-0.49
2022-12-11T13:11:02.363Z,-0.62
2022-12-11T13:13:36.591Z,-0.58
2022-12-11T13:16:10.128Z,-0.74
2022-12-11T13:18:39.771Z,-0.65
2022-12-11T13:21:22.681Z,-0.62
2022-12-11T13:23:52.622Z,-0.54
2022-12-11T13:26:29.105Z,-0.49
2022-12-11T13:28:58.273Z,-0.40
2022-12-11T13:31:33.227Z,-0.35
2022-12-11T13:34:08.462Z,-0.15
2022-12-11T13:36:37.867Z,-0.02
2022-12-11T13:39:10.998Z,-0.03
2022-12-11T13:41:39.659Z,-0.02
2022-12-11T13:44:08.477Z,0.00
2022-12-11T13:46:38.738Z,-0.02
2022-12-11T13:49:08.002Z,-0.08
2022-12-11T13:51:37.443Z,-0.14
2022-12-11T13:54:10.645Z,-0.14
2022-12-11T13:56:42.271Z,-0.20
2022-12-11T13:59:21.511Z,-0.26
2022-12-11T14:01:49.690Z,-0.26
2022-12-11T14:04:21.056Z,-0.31
2022-12-11T14:06:49.497Z,-0.23
2022-12-11T14:09:20.579Z,-0.30
2022-12-11T14:11:53.517Z,-0.26
2022-12-11T14:14:26.281Z,-0.33
2022-12-11T14:16:54.577Z,-0.38
2022-12-11T14:19:24.253Z,-0.29
2022-12-11T14:22:00.157Z,-0.29
2022-12-11T14:24:30.492Z,-0.28
2022-12-11T14:26:59.019Z,-0.28
2022-12-11T14:29:29.982Z,-0.23
2022-12-11T14:32:01.601Z,-0.27
2022-12-11T14:34:33.115Z,-0.36
2022-12-11T14:37:02.189Z,-0.35
2022-12-11T14:39:35.238Z,-0.38
2022-12-11T14:42:05.605Z,-0.50
2022-12-11T14:44:36.662Z,-0.53
2022-12-11T14:47:05.841Z,-0.53
2022-12-11T14:49:39.098Z,-0.57
2022-12-11T14:52:11.218Z,-0.57
2022-12-11T14:54:42.953Z,-0.54
2022-12-11T14:57:19.629Z,-0.49
2022-12-11T14:59:49.554Z,-0.60
2022-12-11T15:02:23.691Z,-0.50
2022-12-11T15:05:01.145Z,-0.52
2022-12-11T15:07:29.380Z,-0.48
2022-12-11T15:09:58.963Z,-0.41
2022-12-11T15:12:27.207Z,-0.46
2022-12-11T15:14:56.561Z,-0.46
2022-12-11T15:17:26.024Z,-0.42
2022-12-11T15:19:56.198Z,-0.38
2022-12-11T15:22:27.656Z,-0.37
2022-12-11T15:24:56.115Z,-0.30
2022-12-11T15:27:38.623Z,-0.31
2022-12-11T15:30:17.965Z,-0.30
2022-12-11T15:32:46.443Z,-0.29
2022-12-11T15:35:22.556Z,-0.37
2022-12-11T15:37:53.767Z,-0.34
2022-12-11T15:40:21.968Z,-0.34
2022-12-11T15:42:52.177Z,-0.33
2022-12-11T15:45:21.831Z,-0.31
2022-12-11T15:47:51.101Z,-0.31
2022-12-11T15:50:20.214Z,-0.36
2022-12-11T15:52:49.710Z,-0.38
2022-12-11T15:55:18.568Z,-0.48
2022-12-11T15:57:48.418Z,-0.45
2022-12-11T16:00:19.488Z,-0.41
2022-12-11T16:02:47.799Z,-0.45
2022-12-11T16:05:15.981Z,-0.43
2022-12-11T16:07:44.390Z,-0.46
2022-12-11T16:10:15.509Z,-0.42
2022-12-11T16:12:43.557Z,-0.41
2022-12-11T16:15:15.306Z,-0.38
2022-12-11T16:17:47.623Z,-0.38
2022-12-11T16:20:16.131Z,-0.39
2022-12-11T16:22:44.900Z,-0.39
2022-12-11T16:25:13.151Z,-0.40
2022-12-11T16:27:41.437Z,-0.38
2022-12-11T16:30:10.817Z,-0.42
2022-12-11T16:32:38.993Z,-0.39
2022-12-11T16:35:09.411Z,-0.42
2022-12-11T16:37:38.115Z,-0.42
2022-12-11T16:40:08.385Z,-0.42
2022-12-11T16:42:36.742Z,-0.46
2022-12-11T16:45:06.000Z,-0.57
2022-12-11T16:47:34.166Z,-0.45
2022-12-11T16:50:02.581Z,-0.45
2022-12-11T16:52:32.955Z,-0.45
2022-12-11T16:55:01.072Z,-0.42
2022-12-11T16:57:29.440Z,-0.44
2022-12-11T16:59:57.562Z,-0.43
2022-12-11T17:02:25.692Z,-0.44
2022-12-11T17:04:54.316Z,-0.51
2022-12-11T17:07:23.585Z,-0.47
2022-12-11T17:09:53.326Z,-0.48
2022-12-11T17:12:27.593Z,-0.56
2022-12-11T17:14:55.878Z,-0.54
2022-12-11T17:17:24.960Z,-0.49
2022-12-11T17:19:53.347Z,-0.56
2022-12-11T17:22:21.465Z,-0.56
2022-12-11T17:24:49.992Z,-0.57
2022-12-11T17:27:19.546Z,-0.56
2022-12-11T17:29:49.589Z,-0.59
2022-12-11T17:32:18.606Z,-0.61
2022-12-11T17:34:49.092Z,-0.58
2022-12-11T17:37:17.559Z,-0.58
2022-12-11T17:39:47.490Z,-0.57
2022-12-11T17:42:15.961Z,-0.55
2022-12-11T17:44:46.620Z,-0.54
2022-12-11T17:47:15.433Z,-0.54
2022-12-11T17:49:43.466Z,-0.55
2022-12-11T17:52:11.812Z,-0.54
2022-12-11T17:54:40.444Z,-0.54
2022-12-11T17:57:08.659Z,-0.55
2022-12-11T17:59:37.510Z,-0.53
2022-12-11T18:02:07.534Z,-0.55
2022-12-11T18:04:35.765Z,-0.55
2022-12-11T18:07:04.013Z,-0.55
2022-12-11T18:09:32.073Z,-0.61
2022-12-11T18:12:00.301Z,-0.61
2022-12-11T18:14:29.249Z,-0.65
2022-12-11T18:16:57.667Z,-0.64
2022-12-11T18:19:27.908Z,-0.65
2022-12-11T18:21:56.202Z,-0.66
2022-12-11T18:24:25.898Z,-0.63
2022-12-11T18:26:54.045Z,-0.63
2022-12-11T18:29:22.270Z,-0.62
2022-12-11T18:31:50.898Z,-0.70
2022-12-11T18:34:19.347Z,-0.64
2022-12-11T18:36:48.972Z,-0.67
2022-12-11T18:39:17.021Z,-0.65
2022-12-11T18:41:53.859Z,-0.67
2022-12-11T18:44:31.996Z,-0.68
2022-12-11T18:47:12.836Z,-0.70
2022-12-11T18:49:43.305Z,-0.76
2022-12-11T18:52:13.126Z,-0.74
2022-12-11T18:54:42.132Z,-0.79
2022-12-11T18:57:10.608Z,-0.74
2022-12-11T18:59:40.563Z,-0.78
2022-12-11T19:02:09.063Z,-0.81
2022-12-11T19:04:37.743Z,-0.79
2022-12-11T19:07:06.016Z,-0.79
2022-12-11T19:09:38.302Z,-0.79
2022-12-11T19:12:07.251Z,-0.80
2022-12-11T19:14:35.300Z,-0.79
2022-12-11T19:17:03.687Z,-0.81
2022-12-11T19:19:32.332Z,-0.77
2022-12-11T19:22:00.875Z,-0.77
2022-12-11T19:24:28.951Z,-0.77
2022-12-11T19:26:59.215Z,-0.81
2022-12-11T19:29:28.894Z,-0.83
2022-12-11T19:31:57.590Z,-0.78
2022-12-11T19:34:26.063Z,-0.77
2022-12-11T19:36:54.254Z,-0.78
2022-12-11T19:39:22.327Z,-0.78
2022-12-11T19:41:51.131Z,-0.78
2022-12-11T19:44:20.771Z,-0.78
2022-12-11T19:46:48.920Z,-0.77
2022-12-11T19:49:17.398Z,-0.78
2022-12-11T19:51:46.059Z,-0.80
2022-12-11T19:54:15.067Z,-0.80
2022-12-11T19:56:43.675Z,-0.78
2022-12-11T19:59:14.021Z,-0.85
2022-12-11T20:01:44.336Z,-0.83
2022-12-11T20:04:13.417Z,-0.83
2022-12-11T20:06:42.892Z,-0.87
2022-12-11T20:09:12.274Z,-0.85
2022-12-11T20:11:41.183Z,-0.83
2022-12-11T20:14:09.666Z,-0.83
2022-12-11T20:17:09.271Z,-0.85
2022-12-11T20:19:27.866Z,-0.86
2022-12-11T20:21:56.015Z,-0.86
2022-12-11T20:24:24.180Z,-0.87
2022-12-11T20:26:54.180Z,-0.88
2022-12-11T20:29:22.290Z,-0.87
2022-12-11T20:31:51.455Z,-0.93
2022-12-11T20:34:20.593Z,-0.95
2022-12-11T20:36:50.591Z,-1.00
2022-12-11T20:39:18.711Z,-1.00
2022-12-11T20:41:46.770Z,-1.10
2022-12-11T20:44:15.075Z,-1.16
2022-12-11T20:46:43.132Z,-1.21
2022-12-11T20:49:13.185Z,-1.22
2022-12-11T20:51:42.098Z,-1.26
2022-12-11T20:54:11.908Z,-1.34
2022-12-11T20:56:40.047Z,-1.31
2022-12-11T20:59:08.323Z,-1.29
2022-12-11T21:01:36.535Z,-1.29
2022-12-11T21:04:04.810Z,-1.29
2022-12-11T21:06:34.163Z,-1.29
2022-12-11T21:09:04.806Z,-1.28
2022-12-11T21:11:34.558Z,-1.29
2022-12-11T21:14:02.672Z,-1.28
2022-12-11T21:16:31.026Z,-1.31
2022-12-11T21:19:00.339Z,-1.29
2022-12-11T21:21:28.409Z,-1.36
2022-12-11T21:23:56.535Z,-1.32
2022-12-11T21:26:24.860Z,-1.31
2022-12-11T21:28:54.733Z,-1.36
2022-12-11T21:31:22.957Z,-1.31
2022-12-11T21:33:51.056Z,-1.25
2022-12-11T21:36:19.126Z,-1.35
2022-12-11T21:38:47.792Z,-1.27
2022-12-11T21:41:17.544Z,-1.27
2022-12-11T21:44:40.830Z,-1.26
2022-12-11T21:46:35.968Z,-1.25
2022-12-11T21:49:04.167Z,-1.24
2022-12-11T21:51:37.798Z,-1.27
2022-12-11T21:54:10.305Z,-1.27
2022-12-11T21:56:38.641Z,-1.22
2022-12-11T21:59:06.878Z,-1.19
2022-12-11T22:01:38.613Z,-1.22
2022-12-11T22:04:06.767Z,-1.18
2022-12-11T22:06:35.205Z,-1.17
2022-12-11T22:09:03.362Z,-1.14
2022-12-11T22:11:32.460Z,-1.15
2022-12-11T22:14:00.950Z,-1.12
2022-12-11T22:16:29.110Z,-1.10
2022-12-11T22:18:58.921Z,-1.10
2022-12-11T22:21:27.442Z,-1.11
2022-12-11T22:23:55.859Z,-1.05
2022-12-11T22:26:25.413Z,-1.06
2022-12-11T22:28:54.051Z,-1.07
2022-12-11T22:31:23.635Z,-1.03
2022-12-11T22:33:53.738Z,-1.01
2022-12-11T22:36:23.717Z,-1.01
2022-12-11T22:38:52.252Z,-1.07
2022-12-11T22:41:23.570Z,-1.06
2022-12-11T22:43:51.637Z,-1.10
2022-12-11T22:46:21.161Z,-1.09
2022-12-11T22:48:49.315Z,-1.09
2022-12-11T22:51:17.844Z,-1.09
2022-12-11T22:53:47.338Z,-1.06
2022-12-11T22:56:15.479Z,-1.05
2022-12-11T22:58:44.121Z,-1.10
2022-12-11T23:01:13.393Z,-1.06
2022-12-11T23:03:41.893Z,-1.06
2022-12-11T23:06:11.915Z,-1.06
2022-12-11T23:08:40.168Z,-1.07
2022-12-11T23:11:12.770Z,-1.09
2022-12-11T23:13:40.909Z,-1.10
2022-12-11T23:16:09.749Z,-1.15
2022-12-11T23:18:38.443Z,-1.11
2022-12-11T23:21:08.058Z,-1.10
2022-12-11T23:23:36.150Z,-1.12
2022-12-11T23:26:05.759Z,-1.11
2022-12-11T23:28:35.300Z,-1.12
2022-12-11T23:31:03.634Z,-1.16
2022-12-11T23:33:31.924Z,-1.19
2022-12-11T23:36:00.398Z,-1.19
2022-12-11T23:38:28.790Z,-1.24
2022-12-11T23:40:57.188Z,-1.27
2022-12-11T23:43:25.291Z,-1.28
2022-12-11T23:45:55.046Z,-1.27
2022-12-11T23:48:23.304Z,-1.24
2022-12-11T23:50:51.619Z,-1.24
2022-12-11T23:53:19.840Z,-1.25
2022-12-11T23:55:47.978Z,-1.24
2022-12-11T23:58:16.292Z,-1.23
